createdAt,value
2018-06-16T00:02:12.046Z,100140.00
2018-06-16T00:04:42.332Z,100150.00
2018-06-16T00:07:12.662Z,100136.00
2018-06-16T00:09:42.949Z,100137.00
2018-06-16T00:12:14.673Z,100136.00
2018-06-16T00:14:45.986Z,100138.00
2018-06-16T00:17:17.209Z,100133.00
2018-06-16T00:19:47.921Z,100131.00
2018-06-16T00:22:18.219Z,100125.00
2018-06-16T00:24:48.498Z,100136.00
2018-06-16T00:27:19.922Z,100126.00
2018-06-16T00:29:50.381Z,100123.00
2018-06-16T00:32:21.367Z,100129.00
2018-06-16T00:34:52.619Z,100133.00
2018-06-16T00:37:29.588Z,100134.00
2018-06-16T00:39:59.965Z,100128.00
2018-06-16T00:42:31.024Z,100126.00
2018-06-16T00:45:01.275Z,100126.00
2018-06-16T00:47:32.035Z,100121.00
2018-06-16T00:50:04.899Z,100120.00
2018-06-16T00:52:35.285Z,100120.00
2018-06-16T00:55:06.430Z,100111.00
2018-06-16T00:57:45.419Z,100121.00
2018-06-16T01:00:16.781Z,100120.00
2018-06-16T01:02:48.301Z,100115.00
2018-06-16T01:05:19.302Z,100113.00
2018-06-16T01:07:50.629Z,100105.00
2018-06-16T01:10:21.402Z,100096.00
2018-06-16T01:12:51.443Z,100100.00
2018-06-16T01:15:22.646Z,100100.00
2018-06-16T01:17:52.753Z,100094.00
2018-06-16T01:20:23.469Z,100086.00
2018-06-16T01:22:54.404Z,100087.00
2018-06-16T01:25:24.823Z,100089.00
2018-06-16T01:27:55.233Z,100085.00
2018-06-16T01:30:26.449Z,100089.00
2018-06-16T01:32:59.110Z,100081.00
2018-06-16T01:35:29.405Z,100085.00
2018-06-16T01:38:01.612Z,100086.00
2018-06-16T01:40:31.833Z,100091.00
2018-06-16T01:43:02.274Z,100089.00
2018-06-16T01:45:32.901Z,100093.00
2018-06-16T01:48:04.889Z,100085.00
2018-06-16T01:50:34.869Z,100095.00
2018-06-16T01:53:05.165Z,100090.00
2018-06-16T01:55:36.418Z,100097.00
2018-06-16T01:58:07.317Z,100085.00
2018-06-16T02:00:37.100Z,100085.00
2018-06-16T02:03:07.555Z,100083.00
2018-06-16T02:05:37.813Z,100074.00
2018-06-16T02:08:08.690Z,100076.00
2018-06-16T02:10:38.934Z,100068.00
2018-06-16T02:13:09.208Z,100070.00
2018-06-16T02:15:39.392Z,100061.00
2018-06-16T02:18:09.641Z,100055.00
2018-06-16T02:20:41.522Z,100056.00
2018-06-16T02:23:11.889Z,100060.00
2018-06-16T02:25:42.985Z,100046.00
2018-06-16T02:28:13.739Z,100051.00
2018-06-16T02:30:44.359Z,100048.00
2018-06-16T02:33:15.540Z,100046.00
2018-06-16T02:35:48.053Z,100045.00
2018-06-16T02:38:18.889Z,100051.00
2018-06-16T02:40:49.485Z,100051.00
2018-06-16T02:43:19.712Z,100051.00
2018-06-16T02:45:50.196Z,100051.00
2018-06-16T02:48:21.317Z,100047.00
2018-06-16T02:50:52.897Z,100057.00
2018-06-16T02:53:23.463Z,100059.00
2018-06-16T02:55:53.774Z,100039.00
2018-06-16T02:58:24.320Z,100029.00
2018-06-16T03:00:54.606Z,99996.00
2018-06-16T03:03:25.293Z,100031.00
2018-06-16T03:05:55.692Z,100046.00
2018-06-16T03:08:27.534Z,100041.00
2018-06-16T03:10:58.388Z,100050.00
2018-06-16T03:13:28.521Z,100051.00
2018-06-16T03:15:59.798Z,100038.00
2018-06-16T03:18:30.449Z,100041.00
2018-06-16T03:21:00.549Z,100031.00
2018-06-16T03:23:31.501Z,100038.00
2018-06-16T03:26:01.806Z,100042.00
2018-06-16T03:28:32.109Z,100029.00
2018-06-16T03:31:02.211Z,100027.00
2018-06-16T03:33:32.993Z,100027.00
2018-06-16T03:36:03.399Z,100034.00
2018-06-16T03:38:33.505Z,100029.00
2018-06-16T03:41:10.422Z,100031.00
2018-06-16T03:43:40.453Z,100024.00
2018-06-16T03:46:10.897Z,100029.00
2018-06-16T03:48:43.805Z,100032.00
2018-06-16T03:51:13.501Z,100028.00
2018-06-16T03:53:44.408Z,100018.00
2018-06-16T03:56:14.993Z,100026.00
2018-06-16T03:58:45.526Z,100029.00
2018-06-16T04:01:16.065Z,100019.00
2018-06-16T04:03:53.954Z,100011.00
2018-06-16T04:06:24.063Z,100017.00
2018-06-16T04:08:55.217Z,100010.00
2018-06-16T04:11:25.576Z,100012.00
2018-06-16T04:13:56.442Z,100010.00
2018-06-16T04:16:26.494Z,100013.00
2018-06-16T04:18:56.824Z,100011.00
2018-06-16T04:21:27.354Z,100014.00
2018-06-16T04:23:58.351Z,100014.00
2018-06-16T04:26:30.117Z,100018.00
2018-06-16T04:29:00.325Z,100002.00
2018-06-16T04:31:30.968Z,100001.00
2018-06-16T04:34:02.705Z,100000.00
2018-06-16T04:36:33.712Z,100005.00
2018-06-16T04:39:06.798Z,99994.00
2018-06-16T04:41:37.089Z,99993.00
2018-06-16T04:44:07.224Z,99999.00
2018-06-16T04:46:37.436Z,100000.00
2018-06-16T04:49:08.077Z,100009.00
2018-06-16T04:51:38.380Z,99997.00
2018-06-16T04:54:09.393Z,100002.00
2018-06-16T04:56:39.613Z,100002.00
2018-06-16T04:59:11.333Z,100003.00
2018-06-16T05:01:42.551Z,100005.00
2018-06-16T05:04:13.576Z,100002.00
2018-06-16T05:06:44.860Z,100015.00
2018-06-16T05:09:15.032Z,100016.00
2018-06-16T05:11:45.702Z,100012.00
2018-06-16T05:14:16.460Z,100013.00
2018-06-16T05:16:46.828Z,100013.00
2018-06-16T05:19:19.263Z,100015.00
2018-06-16T05:21:50.420Z,100018.00
2018-06-16T05:24:22.269Z,100017.00
2018-06-16T05:26:52.823Z,100012.00
2018-06-16T05:29:24.014Z,100018.00
2018-06-16T05:31:54.124Z,100001.00
2018-06-16T05:34:24.896Z,100022.00
2018-06-16T05:36:55.425Z,100011.00
2018-06-16T05:39:26.612Z,100002.00
2018-06-16T05:42:00.302Z,100001.00
2018-06-16T05:44:30.480Z,100005.00
2018-06-16T05:47:01.522Z,100007.00
2018-06-16T05:49:31.909Z,100006.00
2018-06-16T05:52:02.322Z,99998.00
2018-06-16T05:54:32.960Z,99998.00
2018-06-16T05:57:03.503Z,100005.00
2018-06-16T05:59:33.958Z,100007.00
2018-06-16T06:02:05.667Z,99999.00
2018-06-16T06:04:36.292Z,99996.00
2018-06-16T06:07:06.622Z,100000.00
2018-06-16T06:09:37.018Z,100001.00
2018-06-16T06:12:08.666Z,100006.00
2018-06-16T06:14:39.514Z,100004.00
2018-06-16T06:17:09.946Z,100003.00
2018-06-16T06:19:40.407Z,100005.00
2018-06-16T06:22:11.236Z,100000.00
2018-06-16T06:24:42.067Z,100001.00
2018-06-16T06:27:12.397Z,100015.00
2018-06-16T06:29:42.792Z,100002.00
2018-06-16T06:32:13.494Z,99997.00
2018-06-16T06:34:45.085Z,99994.00
2018-06-16T06:37:15.925Z,99998.00
2018-06-16T06:39:46.575Z,100007.00
2018-06-16T06:42:17.429Z,99996.00
2018-06-16T06:44:47.668Z,100005.00
2018-06-16T06:47:19.223Z,100015.00
2018-06-16T06:49:49.752Z,100016.00
2018-06-16T06:52:20.490Z,100003.00
2018-06-16T06:54:50.757Z,99994.00
2018-06-16T06:57:21.950Z,99993.00
2018-06-16T06:59:52.420Z,99996.00
2018-06-16T07:02:23.106Z,99995.00
2018-06-16T07:04:54.367Z,99999.00
2018-06-16T07:07:24.954Z,100002.00
2018-06-16T07:09:58.025Z,99995.00
2018-06-16T07:12:29.432Z,99995.00
2018-06-16T07:15:00.533Z,99999.00
2018-06-16T07:17:31.783Z,99996.00
2018-06-16T07:20:02.169Z,99997.00
2018-06-16T07:22:32.375Z,99989.00
2018-06-16T07:25:02.864Z,99985.00
2018-06-16T07:27:32.918Z,99979.00
2018-06-16T07:30:03.413Z,99987.00
2018-06-16T07:32:33.843Z,99992.00
2018-06-16T07:35:06.252Z,99992.00
2018-06-16T07:37:36.613Z,99987.00
2018-06-16T07:40:08.881Z,99992.00
2018-06-16T07:42:41.442Z,99979.00
2018-06-16T07:45:11.575Z,99986.00
2018-06-16T07:47:41.880Z,99986.00
2018-06-16T07:50:12.467Z,99977.00
2018-06-16T07:52:42.983Z,99976.00
2018-06-16T07:55:13.090Z,99980.00
2018-06-16T07:57:45.393Z,99972.00
2018-06-16T08:00:15.864Z,99977.00
2018-06-16T08:02:52.655Z,99978.00
2018-06-16T08:05:24.047Z,99984.00
2018-06-16T08:07:54.288Z,99983.00
2018-06-16T08:10:24.691Z,99986.00
2018-06-16T08:12:55.784Z,99983.00
2018-06-16T08:15:27.097Z,99987.00
2018-06-16T08:17:57.672Z,99982.00
2018-06-16T08:20:27.852Z,99987.00
2018-06-16T08:22:58.511Z,99984.00
2018-06-16T08:25:28.984Z,99973.00
2018-06-16T08:27:59.725Z,99975.00
2018-06-16T08:30:30.123Z,99970.00
2018-06-16T08:33:00.477Z,99966.00
2018-06-16T08:35:30.771Z,99961.00
2018-06-16T08:38:01.870Z,99958.00
2018-06-16T08:40:32.045Z,99961.00
2018-06-16T08:43:02.543Z,99963.00
2018-06-16T08:45:33.091Z,99968.00
2018-06-16T08:48:03.427Z,99960.00
2018-06-16T08:50:33.641Z,99960.00
2018-06-16T08:53:03.862Z,99959.00
2018-06-16T08:55:34.579Z,99961.00
2018-06-16T08:58:05.000Z,99956.00
2018-06-16T09:00:34.840Z,99946.00
2018-06-16T09:03:06.013Z,99954.00
2018-06-16T09:05:36.443Z,99949.00
2018-06-16T09:08:07.042Z,99950.00
2018-06-16T09:10:37.311Z,99945.00
2018-06-16T09:13:07.711Z,99945.00
2018-06-16T09:15:38.187Z,99941.00
2018-06-16T09:18:08.774Z,99948.00
2018-06-16T09:20:39.209Z,99924.00
2018-06-16T09:23:10.654Z,99933.00
2018-06-16T09:25:40.736Z,99940.00
2018-06-16T09:28:11.011Z,99932.00
2018-06-16T09:30:41.130Z,99934.00
2018-06-16T09:33:11.381Z,99942.00
2018-06-16T09:35:41.936Z,99941.00
2018-06-16T09:38:12.143Z,99939.00
2018-06-16T09:40:44.563Z,99938.00
2018-06-16T09:43:15.685Z,99928.00
2018-06-16T09:45:47.258Z,99927.00
2018-06-16T09:48:17.442Z,99929.00
2018-06-16T09:50:47.878Z,99918.00
2018-06-16T09:53:19.671Z,99919.00
2018-06-16T09:55:50.047Z,99925.00
2018-06-16T09:58:20.662Z,99914.00
2018-06-16T10:00:53.033Z,99906.00
2018-06-16T10:03:26.899Z,99913.00
2018-06-16T10:05:57.331Z,99918.00
2018-06-16T10:08:29.057Z,99915.00
2018-06-16T10:11:00.626Z,99923.00
2018-06-16T10:13:31.944Z,99908.00
2018-06-16T10:16:02.554Z,99908.00
2018-06-16T10:18:32.814Z,99904.00
2018-06-16T10:21:03.343Z,99911.00
2018-06-16T10:23:33.925Z,99901.00
2018-06-16T10:26:04.252Z,99909.00
2018-06-16T10:28:34.403Z,99899.00
2018-06-16T10:31:04.567Z,99892.00
2018-06-16T10:33:34.898Z,99901.00
2018-06-16T10:36:05.428Z,99895.00
2018-06-16T10:38:35.903Z,99883.00
2018-06-16T10:41:06.543Z,99884.00
2018-06-16T10:43:36.988Z,99886.00
2018-06-16T10:46:07.256Z,99879.00
2018-06-16T10:48:39.264Z,99879.00
2018-06-16T10:51:11.584Z,99884.00
2018-06-16T10:53:43.725Z,99875.00
2018-06-16T10:56:16.115Z,99879.00
2018-06-16T10:58:47.875Z,99888.00
2018-06-16T11:01:18.382Z,99876.00
2018-06-16T11:03:49.169Z,99874.00
2018-06-16T11:06:21.711Z,99870.00
2018-06-16T11:08:52.732Z,99867.00
2018-06-16T11:11:26.356Z,99866.00
2018-06-16T11:13:56.635Z,99852.00
2018-06-16T11:16:26.681Z,99856.00
2018-06-16T11:18:57.148Z,99863.00
2018-06-16T11:21:27.353Z,99853.00
2018-06-16T11:23:57.591Z,99858.00
2018-06-16T11:26:27.961Z,99854.00
2018-06-16T11:28:58.091Z,99842.00
2018-06-16T11:31:28.407Z,99847.00
2018-06-16T11:33:58.561Z,99847.00
2018-06-16T11:36:28.762Z,99831.00
2018-06-16T11:38:59.165Z,99838.00
2018-06-16T11:41:29.297Z,99842.00
2018-06-16T11:43:59.560Z,99831.00
2018-06-16T11:46:29.677Z,99825.00
2018-06-16T11:49:00.374Z,99826.00
2018-06-16T11:51:30.510Z,99810.00
2018-06-16T11:54:03.009Z,99824.00
2018-06-16T11:56:35.373Z,99809.00
2018-06-16T11:59:08.161Z,99828.00
2018-06-16T12:01:40.770Z,99825.00
2018-06-16T12:04:13.539Z,99823.00
2018-06-16T12:06:51.336Z,99819.00
2018-06-16T12:09:24.688Z,99820.00
2018-06-16T12:11:56.932Z,99811.00
2018-06-16T12:14:30.496Z,99808.00
2018-06-16T12:17:04.113Z,99825.00
2018-06-16T12:19:37.249Z,99821.00
2018-06-16T12:22:07.746Z,99807.00
2018-06-16T12:24:38.252Z,99812.00
2018-06-16T12:27:08.435Z,99809.00
2018-06-16T12:29:38.536Z,99808.00
2018-06-16T12:32:08.852Z,99802.00
2018-06-16T12:34:38.863Z,99817.00
2018-06-16T12:37:08.908Z,99806.00
2018-06-16T12:39:39.065Z,99811.00
2018-06-16T12:42:09.293Z,99797.00
2018-06-16T12:44:39.735Z,99792.00
2018-06-16T12:47:10.045Z,99796.00
2018-06-16T12:49:40.572Z,99803.00
2018-06-16T12:52:10.771Z,99789.00
2018-06-16T12:54:41.182Z,99802.00
2018-06-16T12:57:11.260Z,99800.00
2018-06-16T12:59:41.650Z,99801.00
2018-06-16T13:02:11.615Z,99793.00
2018-06-16T13:04:42.027Z,99791.00
2018-06-16T13:07:12.319Z,99803.00
2018-06-16T13:09:43.120Z,99794.00
2018-06-16T13:12:12.909Z,99804.00
2018-06-16T13:14:44.082Z,99805.00
2018-06-16T13:17:14.514Z,99800.00
2018-06-16T13:19:44.486Z,99799.00
2018-06-16T13:22:15.018Z,99803.00
2018-06-16T13:24:48.312Z,99806.00
2018-06-16T13:27:23.627Z,99802.00
2018-06-16T13:29:56.673Z,99795.00
2018-06-16T13:32:30.619Z,99791.00
2018-06-16T13:35:05.379Z,99797.00
2018-06-16T13:37:37.879Z,99800.00
2018-06-16T13:40:08.481Z,99805.00
2018-06-16T13:42:38.947Z,99797.00
2018-06-16T13:45:09.122Z,99800.00
2018-06-16T13:47:39.663Z,99795.00
2018-06-16T13:50:09.930Z,99789.00
2018-06-16T13:52:40.179Z,99794.00
2018-06-16T13:55:10.202Z,99795.00
2018-06-16T13:57:40.472Z,99783.00
2018-06-16T14:00:10.619Z,99776.00
2018-06-16T14:02:40.693Z,99786.00
2018-06-16T14:05:10.910Z,99776.00
2018-06-16T14:07:41.096Z,99784.00
2018-06-16T14:10:11.298Z,99779.00
2018-06-16T14:12:41.731Z,99778.00
2018-06-16T14:15:12.005Z,99778.00
2018-06-16T14:17:42.112Z,99767.00
2018-06-16T14:20:12.743Z,99787.00
2018-06-16T14:22:42.868Z,99775.00
2018-06-16T14:25:13.244Z,99767.00
2018-06-16T14:27:43.621Z,99773.00
2018-06-16T14:30:14.150Z,99760.00
2018-06-16T14:32:44.680Z,99768.00
2018-06-16T14:35:14.990Z,99762.00
2018-06-16T14:37:45.607Z,99766.00
2018-06-16T14:40:16.066Z,99770.00
2018-06-16T14:42:46.497Z,99772.00
2018-06-16T14:45:17.019Z,99768.00
2018-06-16T14:47:47.194Z,99771.00
2018-06-16T14:50:17.472Z,99775.00
2018-06-16T14:52:50.294Z,99788.00
2018-06-16T14:55:23.243Z,99760.00
2018-06-16T14:57:57.760Z,99759.00
2018-06-16T15:00:30.269Z,99770.00
2018-06-16T15:03:03.609Z,99767.00
2018-06-16T15:05:37.920Z,99776.00
2018-06-16T15:08:10.784Z,99763.00
2018-06-16T15:10:43.342Z,99780.00
2018-06-16T15:13:16.227Z,99757.00
2018-06-16T15:15:49.008Z,99754.00
2018-06-16T15:18:21.554Z,99759.00
2018-06-16T15:20:53.154Z,99752.00
2018-06-16T15:23:25.839Z,99744.00
2018-06-16T15:25:59.614Z,99751.00
2018-06-16T15:33:24.357Z,99759.00
2018-06-16T15:35:57.345Z,99745.00
2018-06-16T15:38:30.640Z,99750.00
2018-06-16T15:41:05.076Z,99756.00
2018-06-16T15:43:38.391Z,99743.00
2018-06-16T15:46:10.798Z,99738.00
2018-06-16T15:48:41.802Z,99731.00
2018-06-16T15:51:12.145Z,99720.00
2018-06-16T15:53:42.731Z,99717.00
2018-06-16T15:56:13.719Z,99709.00
2018-06-16T15:58:44.201Z,99701.00
2018-06-16T16:01:14.584Z,99687.00
2018-06-16T16:03:45.116Z,99690.00
2018-06-16T16:06:16.206Z,99680.00
2018-06-16T16:08:46.775Z,99678.00
2018-06-16T16:11:17.532Z,99690.00
2018-06-16T16:13:48.167Z,99689.00
2018-06-16T16:16:18.482Z,99691.00
2018-06-16T16:18:48.789Z,99694.00
2018-06-16T16:21:18.859Z,99688.00
2018-06-16T16:23:49.034Z,99679.00
2018-06-16T16:26:19.333Z,99661.00
2018-06-16T16:28:49.743Z,99677.00
2018-06-16T16:31:19.987Z,99671.00
2018-06-16T16:33:51.490Z,99683.00
2018-06-16T16:36:21.735Z,99689.00
2018-06-16T16:38:52.652Z,99680.00
2018-06-16T16:41:22.528Z,99669.00
2018-06-16T16:43:53.009Z,99653.00
2018-06-16T16:46:23.709Z,99653.00
2018-06-16T16:48:55.377Z,99676.00
2018-06-16T16:51:27.343Z,99673.00
2018-06-16T16:53:57.819Z,99666.00
2018-06-16T16:56:28.274Z,99673.00
2018-06-16T16:58:58.668Z,99670.00
2018-06-16T17:01:29.154Z,99673.00
2018-06-16T17:03:59.381Z,99678.00
2018-06-16T17:06:31.033Z,99676.00
2018-06-16T17:09:01.669Z,99670.00
2018-06-16T17:11:32.388Z,99670.00
2018-06-16T17:14:03.041Z,99673.00
2018-06-16T17:16:34.457Z,99675.00
2018-06-16T17:19:04.993Z,99656.00
2018-06-16T17:21:35.387Z,99658.00
2018-06-16T17:24:06.356Z,99684.00
2018-06-16T17:26:36.765Z,99697.00
2018-06-16T17:29:07.227Z,99698.00
2018-06-16T17:31:37.476Z,99697.00
2018-06-16T17:34:07.808Z,99705.00
2018-06-16T17:36:38.481Z,99705.00
2018-06-16T17:39:11.022Z,99723.00
2018-06-16T17:41:41.509Z,99736.00
2018-06-16T17:44:12.712Z,99731.00
2018-06-16T17:46:43.757Z,99715.00
2018-06-16T17:49:14.592Z,99724.00
2018-06-16T17:51:45.632Z,99721.00
2018-06-16T17:54:16.384Z,99705.00
2018-06-16T17:56:47.219Z,99721.00
2018-06-16T17:59:17.541Z,99734.00
2018-06-16T18:01:48.300Z,99716.00
2018-06-16T18:04:18.559Z,99706.00
2018-06-16T18:06:48.838Z,99713.00
2018-06-16T18:09:19.012Z,99718.00
2018-06-16T18:11:49.819Z,99719.00
2018-06-16T18:14:20.044Z,99719.00
2018-06-16T18:16:50.522Z,99708.00
2018-06-16T18:19:21.620Z,99731.00
2018-06-16T18:21:52.230Z,99748.00
2018-06-16T18:24:23.463Z,99731.00
2018-06-16T18:26:53.534Z,99737.00
2018-06-16T18:29:23.950Z,99743.00
2018-06-16T18:31:54.153Z,99754.00
2018-06-16T18:34:24.792Z,99759.00
2018-06-16T18:36:55.246Z,99777.00
2018-06-16T18:39:25.333Z,99778.00
2018-06-16T18:41:55.736Z,99772.00
2018-06-16T18:44:25.933Z,99768.00
2018-06-16T18:46:56.033Z,99778.00
2018-06-16T18:49:27.366Z,99783.00
2018-06-16T18:51:58.237Z,99780.00
2018-06-16T18:54:29.122Z,99786.00
2018-06-16T18:56:59.511Z,99789.00
2018-06-16T18:59:30.499Z,99779.00
2018-06-16T19:02:01.299Z,99778.00
2018-06-16T19:04:32.174Z,99780.00
2018-06-16T19:07:02.440Z,99776.00
2018-06-16T19:09:32.677Z,99790.00
2018-06-16T19:12:02.831Z,99787.00
2018-06-16T19:14:33.367Z,99794.00
2018-06-16T19:17:04.883Z,99796.00
2018-06-16T19:19:35.216Z,99793.00
2018-06-16T19:22:06.141Z,99807.00
2018-06-16T19:24:36.351Z,99805.00
2018-06-16T19:27:06.753Z,99818.00
2018-06-16T19:29:36.776Z,99839.00
2018-06-16T19:32:07.028Z,99827.00
2018-06-16T19:34:37.498Z,99824.00
2018-06-16T19:37:07.754Z,99821.00
2018-06-16T19:39:37.957Z,99842.00
2018-06-16T19:42:08.566Z,99829.00
2018-06-16T19:44:38.713Z,99826.00
2018-06-16T19:47:14.524Z,99839.00
2018-06-16T19:49:45.182Z,99839.00
2018-06-16T19:52:15.481Z,99836.00
2018-06-16T19:54:45.702Z,99845.00
2018-06-16T19:57:16.026Z,99852.00
2018-06-16T19:59:46.581Z,99859.00
2018-06-16T20:02:16.851Z,99847.00
2018-06-16T20:04:47.022Z,99841.00
2018-06-16T20:07:17.619Z,99837.00
2018-06-16T20:09:48.225Z,99835.00
2018-06-16T20:12:19.008Z,99840.00
2018-06-16T20:14:49.300Z,99838.00
2018-06-16T20:17:20.711Z,99858.00
2018-06-16T20:19:53.265Z,99853.00
2018-06-16T20:22:23.551Z,99859.00
2018-06-16T20:24:53.884Z,99857.00
2018-06-16T20:27:24.010Z,99863.00
2018-06-16T20:29:54.268Z,99874.00
2018-06-16T20:32:24.344Z,99871.00
2018-06-16T20:34:54.653Z,99877.00
2018-06-16T20:37:24.917Z,99887.00
2018-06-16T20:39:55.150Z,99880.00
2018-06-16T20:42:25.213Z,99900.00
2018-06-16T20:44:55.816Z,99880.00
2018-06-16T20:47:26.216Z,99878.00
2018-06-16T20:49:56.740Z,99890.00
2018-06-16T20:52:27.407Z,99886.00
2018-06-16T20:54:57.905Z,99896.00
2018-06-16T20:57:28.359Z,99903.00
2018-06-16T20:59:58.285Z,99903.00
2018-06-16T21:02:30.814Z,99896.00
2018-06-16T21:05:01.488Z,99894.00
2018-06-16T21:07:38.150Z,99895.00
2018-06-16T21:10:11.889Z,99904.00
2018-06-16T21:12:46.702Z,99918.00
2018-06-16T21:18:43.629Z,99909.00
2018-06-16T21:21:30.334Z,99909.00
2018-06-16T21:24:03.218Z,99915.00
2018-06-16T21:26:34.447Z,99911.00
2018-06-16T21:29:06.873Z,99913.00
2018-06-16T21:31:37.388Z,99917.00
2018-06-16T21:34:10.338Z,99917.00
2018-06-16T21:36:45.960Z,99919.00
2018-06-16T21:39:21.834Z,99915.00
2018-06-16T21:42:57.517Z,99915.00
2018-06-16T21:45:34.497Z,99926.00
2018-06-16T21:48:13.792Z,99940.00
2018-06-16T21:50:45.655Z,99927.00
2018-06-16T21:53:25.061Z,99940.00
2018-06-16T21:56:06.173Z,99934.00
2018-06-16T21:58:51.637Z,99933.00
2018-06-16T22:01:33.641Z,99946.00
2018-06-16T22:04:08.561Z,99940.00
2018-06-16T22:06:58.748Z,99942.00
2018-06-16T22:09:49.767Z,99944.00
2018-06-16T22:12:32.491Z,99941.00
2018-06-16T22:15:23.083Z,99943.00
2018-06-16T22:18:03.681Z,99938.00
2018-06-16T22:20:40.757Z,99946.00
2018-06-16T22:23:12.553Z,99940.00
2018-06-16T22:26:01.190Z,99940.00
2018-06-16T22:28:31.967Z,99936.00
2018-06-16T22:31:10.526Z,99930.00
2018-06-16T22:36:25.114Z,99943.00
2018-06-16T22:38:55.613Z,99941.00
2018-06-16T22:41:28.695Z,99926.00
2018-06-16T22:43:59.954Z,99937.00
2018-06-16T22:46:35.235Z,99942.00
2018-06-16T22:49:14.941Z,99944.00
2018-06-16T22:51:52.247Z,99943.00
2018-06-16T22:54:24.658Z,99943.00
2018-06-16T22:56:58.934Z,99940.00
2018-06-16T22:59:38.571Z,99950.00
2018-06-16T23:02:13.025Z,99948.00
2018-06-16T23:04:50.672Z,99957.00
2018-06-16T23:07:20.894Z,99947.00
2018-06-16T23:09:51.704Z,99945.00
2018-06-16T23:12:22.077Z,99956.00
2018-06-16T23:14:52.475Z,99951.00
2018-06-16T23:17:22.481Z,99961.00
2018-06-16T23:19:52.685Z,99959.00
2018-06-16T23:22:23.130Z,99968.00
2018-06-16T23:24:53.797Z,99969.00
2018-06-16T23:27:24.600Z,99970.00
2018-06-16T23:29:54.969Z,99972.00
2018-06-16T23:32:25.342Z,99971.00
2018-06-16T23:34:56.263Z,99977.00
2018-06-16T23:37:26.507Z,99985.00
2018-06-16T23:39:56.532Z,99965.00
2018-06-16T23:42:26.899Z,99972.00
2018-06-16T23:44:57.248Z,99973.00
2018-06-16T23:47:27.639Z,99970.00
2018-06-16T23:49:57.716Z,99975.00
2018-06-16T23:52:27.992Z,99983.00
2018-06-16T23:54:58.324Z,99983.00
2018-06-16T23:57:28.514Z,99985.00
2018-06-16T23:59:58.645Z,99989.00
